createdAt,value
2023-03-19T00:00:43.180Z,3.00
2023-03-19T00:03:13.040Z,3.00
2023-03-19T00:05:41.912Z,4.00
2023-03-19T00:08:10.220Z,4.53
2023-03-19T00:10:40.068Z,4.27
2023-03-19T00:13:09.170Z,3.90
2023-03-19T00:15:37.639Z,3.67
2023-03-19T00:18:06.892Z,3.17
2023-03-19T00:20:36.910Z,3.70
2023-03-19T00:23:05.227Z,4.00
2023-03-19T00:25:33.857Z,4.33
2023-03-19T00:28:02.313Z,4.03
2023-03-19T00:30:30.868Z,3.60
2023-03-19T00:33:00.520Z,4.70
2023-03-19T00:35:29.012Z,2.67
2023-03-19T00:37:58.914Z,3.67
2023-03-19T00:40:27.451Z,3.67
2023-03-19T00:42:55.986Z,3.13
2023-03-19T00:45:24.334Z,3.60
2023-03-19T00:47:52.793Z,4.27
2023-03-19T00:50:21.268Z,2.63
2023-03-19T00:52:49.582Z,6.27
2023-03-19T00:55:19.784Z,3.57
2023-03-19T00:57:48.185Z,4.20
2023-03-19T01:00:17.864Z,4.80
2023-03-19T01:02:46.610Z,3.27
2023-03-19T01:05:15.158Z,3.63
2023-03-19T01:07:43.469Z,3.77
2023-03-19T01:10:12.637Z,2.93
2023-03-19T01:12:42.389Z,3.10
2023-03-19T01:15:11.673Z,5.80
2023-03-19T01:17:40.244Z,3.03
2023-03-19T01:20:13.333Z,3.17
2023-03-19T01:22:42.551Z,4.23
2023-03-19T01:25:12.789Z,4.47
2023-03-19T01:27:42.818Z,4.60
2023-03-19T01:30:12.397Z,3.20
2023-03-19T01:32:40.920Z,4.07
2023-03-19T01:35:10.249Z,4.53
2023-03-19T01:37:38.874Z,3.77
2023-03-19T01:40:09.317Z,5.53
2023-03-19T01:42:54.770Z,3.90
2023-03-19T01:45:33.375Z,2.87
2023-03-19T01:48:02.226Z,3.67
2023-03-19T01:50:36.119Z,5.60
2023-03-19T01:53:04.807Z,4.43
2023-03-19T01:55:33.185Z,4.43
2023-03-19T01:58:03.397Z,4.53
2023-03-19T02:00:32.874Z,3.10
2023-03-19T02:03:03.497Z,4.40
2023-03-19T02:05:33.202Z,3.53
2023-03-19T02:08:06.791Z,2.67
2023-03-19T02:10:36.079Z,3.43
2023-03-19T02:13:06.478Z,3.17
2023-03-19T02:15:34.946Z,3.73
2023-03-19T02:18:03.559Z,3.00
2023-03-19T02:20:36.078Z,2.87
2023-03-19T02:23:12.705Z,3.63
2023-03-19T02:25:48.333Z,3.00
2023-03-19T02:28:20.391Z,3.90
2023-03-19T02:30:48.890Z,3.83
2023-03-19T02:33:19.623Z,6.90
2023-03-19T02:35:50.614Z,9.53
2023-03-19T02:38:22.430Z,8.80
2023-03-19T02:40:55.164Z,9.93
2023-03-19T02:43:25.021Z,6.87
2023-03-19T02:45:53.868Z,6.97
2023-03-19T02:48:22.226Z,5.53
2023-03-19T02:50:50.997Z,5.43
2023-03-19T02:53:19.471Z,6.03
2023-03-19T02:55:47.915Z,3.97
2023-03-19T02:58:16.488Z,6.47
2023-03-19T03:00:46.482Z,5.17
2023-03-19T03:03:15.060Z,4.90
2023-03-19T03:05:43.354Z,5.50
2023-03-19T03:08:11.999Z,5.00
2023-03-19T03:10:40.393Z,4.40
2023-03-19T03:13:09.441Z,5.20
2023-03-19T03:15:37.741Z,4.13
2023-03-19T03:18:07.589Z,4.40
2023-03-19T03:20:36.155Z,5.83
2023-03-19T03:23:04.562Z,4.90
2023-03-19T03:25:32.900Z,6.97
2023-03-19T03:28:01.216Z,6.23
2023-03-19T03:30:29.802Z,7.77
2023-03-19T03:32:58.179Z,5.47
2023-03-19T03:35:28.104Z,5.60
2023-03-19T03:37:58.148Z,6.00
2023-03-19T03:40:27.407Z,5.93
2023-03-19T03:42:56.170Z,5.30
2023-03-19T03:45:24.494Z,5.33
2023-03-19T03:47:52.842Z,5.10
2023-03-19T03:50:21.167Z,5.63
2023-03-19T03:52:50.881Z,7.20
2023-03-19T03:55:19.584Z,5.97
2023-03-19T03:57:47.927Z,6.27
2023-03-19T04:00:17.193Z,8.43
2023-03-19T04:02:46.072Z,4.97
2023-03-19T04:05:14.421Z,5.33
2023-03-19T04:07:42.776Z,5.63
2023-03-19T04:10:14.246Z,6.83
2023-03-19T04:12:43.004Z,6.17
2023-03-19T04:15:12.693Z,7.27
2023-03-19T04:17:41.924Z,7.70
2023-03-19T04:20:12.622Z,9.83
2023-03-19T04:22:41.146Z,7.33
2023-03-19T04:25:10.363Z,7.50
2023-03-19T04:27:40.194Z,6.50
2023-03-19T04:30:10.065Z,6.67
2023-03-19T04:32:38.753Z,5.87
2023-03-19T04:35:08.716Z,5.23
2023-03-19T04:37:37.313Z,7.23
2023-03-19T04:40:06.924Z,5.50
2023-03-19T04:42:35.320Z,4.80
2023-03-19T04:45:05.903Z,5.70
2023-03-19T04:47:34.212Z,7.20
2023-03-19T04:50:02.841Z,5.67
2023-03-19T04:52:31.300Z,5.63
2023-03-19T04:54:59.653Z,7.40
2023-03-19T04:57:28.291Z,5.07
2023-03-19T04:59:56.656Z,6.43
2023-03-19T05:02:27.260Z,5.33
2023-03-19T05:04:55.782Z,5.57
2023-03-19T05:07:24.203Z,6.73
2023-03-19T05:09:52.460Z,4.70
2023-03-19T05:12:20.982Z,5.27
2023-03-19T05:14:49.266Z,8.23
2023-03-19T05:17:17.713Z,9.47
2023-03-19T05:19:47.517Z,7.50
2023-03-19T05:22:15.871Z,8.50
2023-03-19T05:24:44.338Z,6.90
2023-03-19T05:27:12.652Z,7.63
2023-03-19T05:29:41.114Z,6.23
2023-03-19T05:32:10.457Z,5.23
2023-03-19T05:34:39.258Z,9.23
2023-03-19T05:37:10.045Z,7.03
2023-03-19T05:39:38.328Z,6.83
2023-03-19T05:42:07.526Z,5.73
2023-03-19T05:44:35.880Z,5.57
2023-03-19T05:47:04.297Z,5.17
2023-03-19T05:49:32.574Z,4.47
2023-03-19T05:52:00.935Z,5.23
2023-03-19T05:54:32.988Z,6.00
2023-03-19T05:57:02.755Z,5.77
2023-03-19T05:59:32.023Z,4.37
2023-03-19T06:02:00.465Z,5.63
2023-03-19T06:04:28.862Z,4.27
2023-03-19T06:06:57.163Z,4.50
2023-03-19T06:09:25.850Z,6.10
2023-03-19T06:11:55.507Z,4.87
2023-03-19T06:14:24.291Z,5.60
2023-03-19T06:16:52.622Z,5.37
2023-03-19T06:19:21.231Z,7.33
2023-03-19T06:21:49.591Z,5.20
2023-03-19T06:24:17.927Z,4.20
2023-03-19T06:26:46.354Z,4.47
2023-03-19T06:29:16.552Z,5.47
2023-03-19T06:31:45.160Z,3.87
2023-03-19T06:34:13.826Z,4.40
2023-03-19T06:36:42.174Z,5.23
2023-03-19T06:39:10.542Z,3.80
2023-03-19T06:41:39.095Z,3.93
2023-03-19T06:44:07.535Z,5.57
2023-03-19T06:46:37.317Z,6.80
2023-03-19T06:49:05.876Z,8.73
2023-03-19T06:51:34.201Z,14.70
2023-03-19T06:54:02.683Z,30.27
2023-03-19T06:56:31.181Z,33.73
2023-03-19T06:58:59.545Z,26.40
2023-03-19T07:01:28.121Z,24.57
2023-03-19T07:03:58.375Z,34.20
2023-03-19T07:06:26.757Z,44.67
2023-03-19T07:08:55.110Z,62.70
2023-03-19T07:11:23.641Z,48.30
2023-03-19T07:13:51.995Z,39.37
2023-03-19T07:16:20.481Z,31.53
2023-03-19T07:18:49.111Z,29.83
2023-03-19T07:21:18.992Z,30.60
2023-03-19T07:23:48.139Z,32.43
2023-03-19T07:26:16.669Z,31.33
2023-03-19T07:28:44.970Z,31.13
2023-03-19T07:31:13.384Z,28.23
2023-03-19T07:33:41.811Z,22.17
2023-03-19T07:36:11.425Z,18.53
2023-03-19T07:38:41.338Z,18.43
2023-03-19T07:41:09.832Z,14.63
2023-03-19T07:43:38.138Z,12.67
2023-03-19T07:46:06.942Z,12.47
2023-03-19T07:48:35.235Z,12.20
2023-03-19T07:51:04.237Z,12.23
2023-03-19T07:53:32.855Z,11.90
2023-03-19T07:56:02.865Z,10.83
2023-03-19T07:58:31.145Z,12.20
2023-03-19T08:00:59.510Z,11.43
2023-03-19T08:03:28.139Z,10.13
2023-03-19T08:05:56.775Z,10.70
2023-03-19T08:08:25.134Z,11.07
2023-03-19T08:10:55.939Z,10.63
2023-03-19T08:13:25.921Z,10.20
2023-03-19T08:15:54.636Z,9.97
2023-03-19T08:18:23.130Z,10.53
2023-03-19T08:20:51.655Z,12.60
2023-03-19T08:23:20.081Z,10.37
2023-03-19T08:25:48.666Z,14.17
2023-03-19T08:28:17.213Z,11.43
2023-03-19T08:30:47.585Z,10.60
2023-03-19T08:33:16.243Z,10.47
2023-03-19T08:35:44.817Z,12.73
2023-03-19T08:38:13.248Z,13.10
2023-03-19T08:40:41.734Z,11.80
2023-03-19T08:43:10.078Z,9.17
2023-03-19T08:45:38.527Z,8.10
2023-03-19T08:48:08.339Z,7.20
2023-03-19T08:50:36.941Z,7.13
2023-03-19T08:53:05.615Z,6.30
2023-03-19T08:55:33.972Z,4.87
2023-03-19T08:58:02.395Z,8.67
2023-03-19T09:00:31.128Z,7.10
2023-03-19T09:02:59.429Z,8.23
2023-03-19T09:05:29.851Z,6.67
2023-03-19T09:07:58.398Z,6.70
2023-03-19T09:10:26.800Z,8.73
2023-03-19T09:12:55.903Z,8.37
2023-03-19T09:15:24.385Z,7.10
2023-03-19T09:17:54.278Z,6.70
2023-03-19T09:20:22.750Z,6.00
2023-03-19T09:22:52.509Z,8.33
2023-03-19T09:25:21.363Z,7.57
2023-03-19T09:27:49.873Z,8.37
2023-03-19T09:30:18.846Z,8.17
2023-03-19T09:32:47.405Z,7.07
2023-03-19T09:35:16.095Z,10.70
2023-03-19T09:37:44.561Z,6.43
2023-03-19T09:40:43.546Z,8.07
2023-03-19T09:43:33.658Z,17.97
2023-03-19T09:46:04.892Z,26.03
2023-03-19T09:48:36.613Z,27.33
2023-03-19T09:51:10.669Z,22.13
2023-03-19T09:53:47.408Z,17.43
2023-03-19T09:56:19.510Z,15.73
2023-03-19T09:58:49.176Z,15.10
2023-03-19T10:01:28.968Z,14.13
2023-03-19T10:04:22.319Z,13.00
2023-03-19T10:06:55.159Z,14.90
2023-03-19T10:09:45.738Z,13.47
2023-03-19T10:12:30.506Z,14.43
2023-03-19T10:15:22.220Z,15.63
2023-03-19T10:17:59.695Z,19.57
2023-03-19T10:20:38.110Z,22.00
2023-03-19T10:23:30.534Z,25.87
2023-03-19T10:26:04.024Z,29.23
2023-03-19T10:29:07.718Z,30.23
2023-03-19T10:31:45.590Z,25.50
2023-03-19T10:34:26.514Z,22.80
2023-03-19T10:37:01.568Z,23.87
2023-03-19T10:39:31.032Z,23.73
2023-03-19T10:42:09.740Z,23.67
2023-03-19T10:44:47.277Z,23.87
2023-03-19T10:47:17.880Z,23.70
2023-03-19T10:49:46.522Z,23.27
2023-03-19T10:52:26.283Z,21.37
2023-03-19T10:54:58.002Z,20.63
2023-03-19T10:57:28.844Z,18.93
2023-03-19T11:00:06.857Z,17.90
2023-03-19T11:02:37.194Z,16.23
2023-03-19T11:05:10.253Z,15.77
2023-03-19T11:07:39.564Z,15.30
2023-03-19T11:10:14.877Z,14.90
2023-03-19T11:12:48.990Z,15.40
2023-03-19T11:15:25.857Z,16.53
2023-03-19T11:17:59.697Z,15.07
2023-03-19T11:20:33.907Z,13.87
2023-03-19T11:23:06.382Z,15.17
2023-03-19T11:25:39.176Z,14.73
2023-03-19T11:28:10.138Z,14.50
2023-03-19T11:30:54.891Z,14.13
2023-03-19T11:33:44.980Z,15.17
2023-03-19T11:36:17.570Z,14.33
2023-03-19T11:39:06.125Z,15.57
2023-03-19T11:41:48.510Z,16.87
2023-03-19T11:44:20.713Z,21.30
2023-03-19T11:46:57.371Z,24.80
2023-03-19T11:49:52.268Z,26.13
2023-03-19T11:52:26.888Z,28.33
2023-03-19T11:55:15.081Z,36.50
2023-03-19T11:58:00.159Z,49.83
2023-03-19T12:00:37.339Z,42.93
2023-03-19T12:03:40.574Z,44.33
2023-03-19T12:06:19.642Z,41.43
2023-03-19T12:08:54.719Z,42.13
2023-03-19T12:11:30.856Z,41.77
2023-03-19T12:14:20.872Z,43.93
2023-03-19T12:17:09.027Z,44.67
2023-03-19T12:20:00.693Z,40.43
2023-03-19T12:22:41.537Z,34.13
2023-03-19T12:25:30.331Z,31.30
2023-03-19T12:28:06.961Z,30.43
2023-03-19T12:30:41.424Z,31.43
2023-03-19T12:33:20.611Z,28.30
2023-03-19T12:35:53.843Z,26.43
2023-03-19T12:38:26.926Z,29.07
2023-03-19T12:40:59.658Z,28.73
2023-03-19T12:43:33.611Z,29.97
2023-03-19T12:46:08.405Z,29.43
2023-03-19T12:48:42.447Z,28.77
2023-03-19T12:51:16.359Z,27.20
2023-03-19T12:53:50.673Z,26.37
2023-03-19T12:56:24.716Z,23.57
2023-03-19T12:59:00.212Z,24.30
2023-03-19T13:01:34.028Z,22.40
2023-03-19T13:04:09.864Z,20.50
2023-03-19T13:06:44.629Z,18.10
2023-03-19T13:09:19.855Z,17.20
2023-03-19T13:11:53.143Z,15.83
2023-03-19T13:14:26.904Z,15.93
2023-03-19T13:17:03.963Z,15.27
2023-03-19T13:19:36.927Z,15.00
2023-03-19T13:22:14.156Z,14.20
2023-03-19T13:24:45.468Z,15.13
2023-03-19T13:27:20.777Z,13.60
2023-03-19T13:30:04.272Z,14.47
2023-03-19T13:32:39.823Z,14.37
2023-03-19T13:35:33.548Z,14.70
2023-03-19T13:38:08.987Z,15.43
2023-03-19T13:40:40.931Z,15.17
2023-03-19T13:43:38.507Z,16.10
2023-03-19T13:46:32.093Z,15.80
2023-03-19T13:49:19.790Z,16.60
2023-03-19T13:51:50.739Z,15.87
2023-03-19T13:54:23.761Z,15.43
2023-03-19T13:57:33.996Z,14.50
2023-03-19T14:00:44.132Z,16.33
2023-03-19T14:03:22.728Z,15.10
2023-03-19T14:05:53.729Z,14.43
2023-03-19T14:08:24.923Z,15.10
2023-03-19T14:10:56.490Z,14.70
2023-03-19T14:13:39.175Z,14.03
2023-03-19T14:16:16.507Z,15.43
2023-03-19T14:18:46.869Z,16.43
2023-03-19T14:21:21.916Z,15.47
2023-03-19T14:23:57.709Z,14.10
2023-03-19T14:26:30.290Z,15.00
2023-03-19T14:29:02.605Z,13.97
2023-03-19T14:31:38.394Z,22.13
2023-03-19T14:34:19.398Z,24.20
2023-03-19T14:36:51.433Z,17.70
2023-03-19T14:39:24.506Z,14.73
2023-03-19T14:42:01.094Z,10.63
2023-03-19T14:45:09.559Z,10.53
2023-03-19T14:48:06.427Z,11.67
2023-03-19T14:51:02.406Z,11.53
2023-03-19T14:53:38.767Z,10.70
2023-03-19T14:56:15.929Z,11.30
2023-03-19T14:58:52.388Z,12.33
2023-03-19T15:01:21.751Z,13.13
2023-03-19T15:03:56.543Z,13.20
2023-03-19T15:06:27.808Z,12.47
2023-03-19T15:09:00.894Z,13.30
2023-03-19T15:11:45.199Z,15.03
2023-03-19T15:14:49.960Z,12.27
2023-03-19T15:17:24.490Z,13.53
2023-03-19T15:19:54.524Z,12.43
2023-03-19T15:22:31.513Z,13.63
2023-03-19T15:25:08.334Z,16.03
2023-03-19T15:27:37.380Z,16.00
2023-03-19T15:30:21.583Z,15.23
2023-03-19T15:33:04.537Z,15.97
2023-03-19T15:35:38.003Z,14.63
2023-03-19T15:38:12.350Z,15.20
2023-03-19T15:40:42.828Z,16.67
2023-03-19T15:43:14.132Z,19.20
2023-03-19T15:45:47.335Z,20.67
2023-03-19T15:48:22.446Z,18.40
2023-03-19T15:50:55.864Z,17.47
2023-03-19T15:53:28.229Z,18.30
2023-03-19T15:55:58.056Z,17.87
2023-03-19T15:58:29.065Z,19.30
2023-03-19T16:00:59.426Z,19.40
2023-03-19T16:03:33.354Z,20.10
2023-03-19T16:06:04.181Z,21.10
2023-03-19T16:08:34.701Z,21.67
2023-03-19T16:11:27.503Z,22.50
2023-03-19T16:13:58.935Z,22.17
2023-03-19T16:16:31.051Z,23.80
2023-03-19T16:19:00.358Z,24.10
2023-03-19T16:21:36.293Z,22.77
2023-03-19T16:24:15.989Z,22.30
2023-03-19T16:26:45.759Z,22.43
2023-03-19T16:29:24.314Z,22.33
2023-03-19T16:31:54.970Z,19.70
2023-03-19T16:34:44.065Z,18.97
2023-03-19T16:37:39.587Z,19.10
2023-03-19T16:40:48.713Z,19.87
2023-03-19T16:43:20.178Z,22.03
2023-03-19T16:45:53.379Z,21.40
2023-03-19T16:48:22.046Z,21.17
2023-03-19T16:50:51.181Z,22.10
2023-03-19T16:53:24.713Z,23.83
2023-03-19T16:55:56.464Z,27.03
2023-03-19T16:58:31.044Z,25.00
2023-03-19T17:00:59.731Z,24.77
2023-03-19T17:03:30.392Z,24.00
2023-03-19T17:05:59.062Z,23.07
2023-03-19T17:08:27.698Z,20.00
2023-03-19T17:10:59.161Z,17.47
2023-03-19T17:13:30.264Z,14.97
2023-03-19T17:16:02.251Z,13.37
2023-03-19T17:18:33.173Z,15.00
2023-03-19T17:21:05.968Z,14.87
2023-03-19T17:23:34.719Z,13.00
2023-03-19T17:26:12.045Z,14.23
2023-03-19T17:28:40.634Z,13.80
2023-03-19T17:31:28.469Z,11.40
2023-03-19T17:34:02.228Z,9.00
2023-03-19T17:36:31.065Z,10.20
2023-03-19T17:38:59.567Z,8.80
2023-03-19T17:41:30.457Z,8.67
2023-03-19T17:43:58.809Z,7.73
2023-03-19T17:46:29.415Z,7.50
2023-03-19T17:48:57.979Z,7.57
2023-03-19T17:51:27.320Z,10.23
2023-03-19T17:53:56.581Z,15.13
2023-03-19T17:56:26.605Z,17.40
2023-03-19T17:58:56.536Z,16.60
2023-03-19T18:01:27.327Z,15.73
2023-03-19T18:03:57.336Z,19.80
2023-03-19T18:06:27.592Z,24.00
2023-03-19T18:08:56.540Z,25.20
2023-03-19T18:11:25.064Z,26.33
2023-03-19T18:13:53.636Z,24.53
2023-03-19T18:16:28.215Z,23.43
2023-03-19T18:18:59.198Z,21.53
2023-03-19T18:21:28.375Z,18.83
2023-03-19T18:23:57.421Z,16.23
2023-03-19T18:26:26.413Z,14.67
2023-03-19T18:28:54.887Z,13.37
2023-03-19T18:31:26.587Z,14.67
2023-03-19T18:33:58.618Z,12.77
2023-03-19T18:36:30.599Z,12.77
2023-03-19T18:38:59.309Z,12.37
2023-03-19T18:41:29.549Z,12.83
2023-03-19T18:43:58.069Z,13.17
2023-03-19T18:46:31.620Z,14.00
2023-03-19T18:49:01.945Z,10.67
2023-03-19T18:51:31.043Z,10.23
2023-03-19T18:53:59.389Z,11.47
2023-03-19T18:56:30.504Z,10.70
2023-03-19T18:59:00.699Z,11.00
2023-03-19T19:01:30.898Z,10.67
2023-03-19T19:03:59.442Z,11.23
2023-03-19T19:06:46.930Z,10.50
2023-03-19T19:09:16.303Z,10.77
2023-03-19T19:11:47.546Z,10.17
2023-03-19T19:14:20.195Z,9.97
2023-03-19T19:16:50.408Z,10.33
2023-03-19T19:19:22.585Z,10.30
2023-03-19T19:21:51.411Z,10.60
2023-03-19T19:24:19.848Z,9.57
2023-03-19T19:26:51.559Z,8.87
2023-03-19T19:29:25.038Z,9.07
2023-03-19T19:31:55.918Z,8.87
2023-03-19T19:34:24.748Z,10.00
2023-03-19T19:36:55.549Z,10.87
2023-03-19T19:39:23.906Z,12.50
2023-03-19T19:41:53.267Z,12.17
2023-03-19T19:44:23.470Z,14.90
2023-03-19T19:46:53.468Z,15.30
2023-03-19T19:49:25.235Z,15.40
2023-03-19T19:51:53.627Z,16.63
2023-03-19T19:54:25.053Z,17.33
2023-03-19T19:56:53.600Z,18.00
2023-03-19T19:59:26.156Z,20.17
2023-03-19T20:01:54.696Z,23.00
2023-03-19T20:04:24.515Z,22.80
2023-03-19T20:06:52.834Z,19.40
2023-03-19T20:09:22.231Z,15.70
2023-03-19T20:11:50.665Z,14.70
2023-03-19T20:14:19.019Z,13.37
2023-03-19T20:16:49.448Z,13.00
2023-03-19T20:19:20.282Z,13.43
2023-03-19T20:21:50.082Z,18.10
2023-03-19T20:24:18.552Z,21.57
2023-03-19T20:26:46.938Z,21.60
2023-03-19T20:29:16.771Z,20.97
2023-03-19T20:31:46.806Z,18.37
2023-03-19T20:34:28.657Z,14.50
2023-03-19T20:37:06.517Z,14.13
2023-03-19T20:39:34.848Z,14.10
2023-03-19T20:42:03.230Z,18.10
2023-03-19T20:44:31.758Z,18.20
2023-03-19T20:47:00.206Z,17.67
2023-03-19T20:49:29.176Z,16.13
2023-03-19T20:51:57.591Z,15.63
2023-03-19T20:54:27.907Z,16.27
2023-03-19T20:56:56.414Z,16.43
2023-03-19T20:59:27.056Z,15.63
2023-03-19T21:01:56.717Z,17.77
2023-03-19T21:04:25.054Z,17.73
2023-03-19T21:06:54.386Z,17.40
2023-03-19T21:09:24.227Z,17.73
2023-03-19T21:11:54.002Z,18.80
2023-03-19T21:14:23.696Z,19.23
2023-03-19T21:16:52.024Z,19.40
2023-03-19T21:19:20.689Z,19.90
2023-03-19T21:21:49.523Z,21.00
2023-03-19T21:24:21.052Z,23.33
2023-03-19T21:26:50.280Z,23.93
2023-03-19T21:29:27.362Z,25.80
2023-03-19T21:31:57.916Z,28.87
2023-03-19T21:34:29.649Z,28.10
2023-03-19T21:36:58.174Z,29.60
2023-03-19T21:39:26.702Z,29.77
2023-03-19T21:41:57.214Z,31.13
2023-03-19T21:44:29.847Z,29.97
2023-03-19T21:46:58.336Z,32.10
2023-03-19T21:49:27.044Z,32.63
2023-03-19T21:51:57.174Z,37.00
2023-03-19T21:54:25.585Z,36.27
2023-03-19T21:56:54.088Z,38.20
2023-03-19T21:59:26.617Z,41.53
2023-03-19T22:01:56.496Z,41.17
2023-03-19T22:04:24.994Z,39.43
2023-03-19T22:06:53.647Z,34.37
2023-03-19T22:09:21.998Z,25.83
2023-03-19T22:11:50.402Z,21.33
2023-03-19T22:14:21.102Z,20.37
2023-03-19T22:16:53.113Z,20.50
2023-03-19T22:19:23.960Z,18.07
2023-03-19T22:21:52.381Z,29.43
2023-03-19T22:24:21.138Z,34.53
2023-03-19T22:26:52.298Z,35.93
2023-03-19T22:29:23.725Z,37.33
2023-03-19T22:31:53.940Z,38.20
2023-03-19T22:34:26.484Z,36.80
2023-03-19T22:36:55.107Z,38.00
2023-03-19T22:39:23.509Z,37.40
2023-03-19T22:41:52.285Z,38.10
2023-03-19T22:44:27.076Z,35.60
2023-03-19T22:46:57.306Z,31.03
2023-03-19T22:49:28.148Z,23.23
2023-03-19T22:51:57.763Z,20.47
2023-03-19T22:54:26.656Z,25.30
2023-03-19T22:56:54.960Z,34.97
2023-03-19T22:59:23.251Z,30.63
2023-03-19T23:01:51.668Z,27.00
2023-03-19T23:04:22.555Z,24.33
2023-03-19T23:06:52.903Z,21.80
2023-03-19T23:09:24.209Z,22.47
2023-03-19T23:11:53.764Z,20.17
2023-03-19T23:14:29.657Z,21.27
2023-03-19T23:17:01.044Z,20.23
2023-03-19T23:19:31.358Z,20.83
2023-03-19T23:22:03.268Z,23.03
2023-03-19T23:24:32.461Z,22.63
2023-03-19T23:27:02.405Z,21.50
2023-03-19T23:29:34.350Z,21.43
2023-03-19T23:32:03.467Z,21.70
2023-03-19T23:34:35.347Z,21.40
2023-03-19T23:37:09.851Z,21.30
2023-03-19T23:39:39.700Z,20.80
2023-03-19T23:42:08.715Z,21.20
2023-03-19T23:44:38.492Z,21.27
2023-03-19T23:47:07.385Z,21.37
2023-03-19T23:49:36.447Z,20.23
2023-03-19T23:52:05.408Z,19.97
2023-03-19T23:54:37.990Z,20.17
2023-03-19T23:57:08.609Z,19.37
2023-03-19T23:59:44.126Z,19.63
